Chichester, New York
Current Conditions -  °F | °C
As of 11:35 AM on Friday 19 Dec 2014 (Local Time) from KMSV Reporting Station
Overcast Overcast  
Wind Chill: 16°   Ceiling: 2100
Heat Index: 27°   Visibility: 10mi
Dew Point: 19°   Wind: 13mph
Humidity: 74%   Direction: 310°NW
Pressure: 30.02"   Gusts: 22mph
Location:  42.1°N, 74.31°W
Report Text: KMSV 191635Z AUTO 31011G19KT 10SM OVC021 M03/M07 A3002 RMK AO1
Loading
Personal Weather Stations






























Interactive Weather Map New forecast layout! Learn more

10-Day Weather Forecast

Advertisements
Track Severe Weather on mobile